createdAt,value
2019-01-19T00:01:28.657Z,100.00
2019-01-19T00:04:36.737Z,100.00
2019-01-19T00:07:43.808Z,100.00
2019-01-19T00:10:58.899Z,100.00
2019-01-19T00:14:11.320Z,100.00
2019-01-19T00:17:33.167Z,100.00
2019-01-19T00:20:38.883Z,100.00
2019-01-19T00:23:46.059Z,100.00
2019-01-19T00:26:39.025Z,100.00
2019-01-19T00:29:32.408Z,100.00
2019-01-19T00:32:51.578Z,100.00
2019-01-19T00:36:08.889Z,100.00
2019-01-19T00:39:02.468Z,100.00
2019-01-19T00:42:26.745Z,100.00
2019-01-19T00:45:42.015Z,100.00
2019-01-19T00:48:41.013Z,100.00
2019-01-19T00:51:48.419Z,100.00
2019-01-19T00:54:32.264Z,100.00
2019-01-19T00:57:47.526Z,100.00
2019-01-19T01:00:32.620Z,100.00
2019-01-19T01:03:19.513Z,100.00
2019-01-19T01:06:34.855Z,100.00
2019-01-19T01:09:40.873Z,100.00
2019-01-19T01:12:36.993Z,100.00
2019-01-19T01:15:36.912Z,100.00
2019-01-19T01:18:36.731Z,100.00
2019-01-19T01:21:30.865Z,100.00
2019-01-19T01:24:40.508Z,100.00
2019-01-19T01:27:22.119Z,100.00
2019-01-19T01:30:33.612Z,100.00
2019-01-19T01:33:45.641Z,100.00
2019-01-19T01:37:09.322Z,100.00
2019-01-19T01:40:33.852Z,100.00
2019-01-19T01:43:53.707Z,100.00
2019-01-19T01:47:17.157Z,100.00
2019-01-19T01:50:16.782Z,100.00
2019-01-19T01:53:44.045Z,100.00
2019-01-19T01:56:16.186Z,100.00
2019-01-19T01:59:18.209Z,100.00
2019-01-19T02:02:39.887Z,100.00
2019-01-19T02:05:43.507Z,100.00
2019-01-19T02:08:59.008Z,100.00
2019-01-19T02:11:55.246Z,100.00
2019-01-19T02:15:10.271Z,100.00
2019-01-19T02:18:08.385Z,100.00
2019-01-19T02:20:55.592Z,100.00
2019-01-19T02:23:48.138Z,100.00
2019-01-19T02:26:45.428Z,100.00
2019-01-19T02:29:56.839Z,100.00
2019-01-19T02:33:23.734Z,100.00
2019-01-19T02:36:35.549Z,100.00
2019-01-19T02:39:29.097Z,100.00
2019-01-19T02:42:43.379Z,100.00
2019-01-19T02:45:56.856Z,100.00
2019-01-19T02:49:24.406Z,100.00
2019-01-19T02:52:33.474Z,100.00
2019-01-19T02:56:00.963Z,100.00
2019-01-19T02:59:00.228Z,100.00
2019-01-19T03:01:44.087Z,100.00
2019-01-19T03:04:56.285Z,100.00
2019-01-19T03:08:10.225Z,100.00
2019-01-19T03:11:21.518Z,100.00
2019-01-19T03:14:16.014Z,100.00
2019-01-19T03:17:21.029Z,100.00
2019-01-19T03:20:42.386Z,100.00
2019-01-19T03:24:06.885Z,100.00
2019-01-19T03:27:03.299Z,100.00
2019-01-19T03:30:33.988Z,100.00
2019-01-19T03:33:42.082Z,100.00
2019-01-19T03:36:42.823Z,100.00
2019-01-19T03:39:52.140Z,100.00
2019-01-19T03:43:09.352Z,100.00
2019-01-19T03:46:21.350Z,100.00
2019-01-19T03:49:18.002Z,100.00
2019-01-19T03:52:24.677Z,100.00
2019-01-19T03:55:13.023Z,100.00
2019-01-19T03:58:24.638Z,100.00
2019-01-19T04:01:08.768Z,100.00
2019-01-19T04:04:06.732Z,100.00
2019-01-19T04:07:02.774Z,100.00
2019-01-19T04:09:59.812Z,99.87
2019-01-19T04:13:11.045Z,99.68
2019-01-19T04:16:33.252Z,99.23
2019-01-19T04:19:50.363Z,98.49
2019-01-19T04:22:32.974Z,96.96
2019-01-19T04:25:34.630Z,96.20
2019-01-19T04:28:07.761Z,96.12
2019-01-19T04:30:39.073Z,95.92
2019-01-19T04:33:10.956Z,95.73
2019-01-19T04:35:42.218Z,95.60
2019-01-19T04:38:13.489Z,95.64
2019-01-19T04:40:44.766Z,95.49
2019-01-19T04:43:16.116Z,95.30
2019-01-19T04:45:47.429Z,94.99
2019-01-19T04:48:20.357Z,94.70
2019-01-19T04:50:52.369Z,95.19
2019-01-19T04:53:23.656Z,94.93
2019-01-19T04:55:55.115Z,94.98
2019-01-19T04:58:26.589Z,94.59
2019-01-19T05:00:57.940Z,94.60
2019-01-19T05:03:29.276Z,94.01
2019-01-19T05:06:00.607Z,93.99
2019-01-19T05:08:31.858Z,93.81
2019-01-19T05:11:03.342Z,93.95
2019-01-19T05:13:34.631Z,93.90
2019-01-19T05:16:06.739Z,93.62
2019-01-19T05:18:37.991Z,93.11
2019-01-19T05:21:09.410Z,93.01
2019-01-19T05:23:40.840Z,92.82
2019-01-19T05:26:12.194Z,92.60
2019-01-19T05:28:43.490Z,92.40
2019-01-19T05:31:14.799Z,92.01
2019-01-19T05:33:46.077Z,91.55
2019-01-19T05:36:17.487Z,91.46
2019-01-19T05:38:48.760Z,90.89
2019-01-19T05:41:20.111Z,90.84
2019-01-19T05:43:51.518Z,91.01
2019-01-19T05:46:22.807Z,91.05
2019-01-19T05:48:54.163Z,90.79
2019-01-19T05:51:25.521Z,90.69
2019-01-19T05:53:56.760Z,90.26
2019-01-19T05:56:28.142Z,89.89
2019-01-19T05:58:59.513Z,89.91
2019-01-19T06:01:30.842Z,89.88
2019-01-19T06:04:02.114Z,89.56
2019-01-19T06:06:33.414Z,89.79
2019-01-19T06:09:07.756Z,89.62
2019-01-19T06:11:38.999Z,89.68
2019-01-19T06:14:10.246Z,90.14
2019-01-19T06:16:44.076Z,90.33
2019-01-19T06:19:15.744Z,89.75
2019-01-19T06:21:54.745Z,88.81
2019-01-19T06:24:26.011Z,88.88
2019-01-19T06:26:57.333Z,88.61
2019-01-19T06:29:28.573Z,88.38
2019-01-19T06:31:59.916Z,88.18
2019-01-19T06:34:31.240Z,88.29
2019-01-19T06:37:04.337Z,88.36
2019-01-19T06:39:35.853Z,88.79
2019-01-19T06:42:07.146Z,88.96
2019-01-19T06:44:38.567Z,89.02
2019-01-19T06:47:10.119Z,89.16
2019-01-19T06:49:41.470Z,88.81
2019-01-19T06:52:12.731Z,89.07
2019-01-19T06:54:44.069Z,89.32
2019-01-19T06:57:15.436Z,89.44
2019-01-19T06:59:46.761Z,88.69
2019-01-19T07:02:18.267Z,89.07
2019-01-19T07:04:49.705Z,88.71
2019-01-19T07:07:21.024Z,88.88
2019-01-19T07:09:52.371Z,88.75
2019-01-19T07:12:23.739Z,89.13
2019-01-19T07:14:55.137Z,89.08
2019-01-19T07:17:26.626Z,89.02
2019-01-19T07:19:57.896Z,89.03
2019-01-19T07:22:29.185Z,89.24
2019-01-19T07:25:00.877Z,89.72
2019-01-19T07:27:32.241Z,89.67
2019-01-19T07:30:04.982Z,89.78
2019-01-19T07:32:36.256Z,89.71
2019-01-19T07:35:08.661Z,90.25
2019-01-19T07:37:39.990Z,90.62
2019-01-19T07:40:13.299Z,90.54
2019-01-19T07:42:45.092Z,90.31
2019-01-19T07:45:16.981Z,90.19
2019-01-19T07:47:48.338Z,90.03
2019-01-19T07:50:19.698Z,89.50
2019-01-19T07:52:51.101Z,89.78
2019-01-19T07:55:22.352Z,89.77
2019-01-19T07:57:53.640Z,89.37
2019-01-19T08:00:27.603Z,89.36
2019-01-19T08:02:58.931Z,89.00
2019-01-19T08:05:31.847Z,89.13
2019-01-19T08:08:03.218Z,88.61
2019-01-19T08:10:34.638Z,88.27
2019-01-19T08:13:05.930Z,87.74
2019-01-19T08:15:37.168Z,87.79
2019-01-19T08:18:08.723Z,87.31
2019-01-19T08:20:40.007Z,87.63
2019-01-19T08:23:11.913Z,87.10
2019-01-19T08:25:43.326Z,86.42
2019-01-19T08:28:14.675Z,86.51
2019-01-19T08:30:46.024Z,86.71
2019-01-19T08:33:17.334Z,86.07
2019-01-19T08:35:48.739Z,85.35
2019-01-19T08:38:20.387Z,85.48
2019-01-19T08:40:51.761Z,85.03
2019-01-19T08:43:30.016Z,85.09
2019-01-19T08:46:02.317Z,85.15
2019-01-19T08:48:33.692Z,85.43
2019-01-19T08:51:05.244Z,85.34
2019-01-19T08:53:38.403Z,85.11
2019-01-19T08:56:09.650Z,84.65
2019-01-19T08:58:41.135Z,84.31
2019-01-19T09:01:12.409Z,85.20
2019-01-19T09:03:43.830Z,84.91
2019-01-19T09:06:15.127Z,84.67
2019-01-19T09:08:46.390Z,84.14
2019-01-19T09:11:17.725Z,84.82
2019-01-19T09:13:49.105Z,85.16
2019-01-19T09:16:22.292Z,84.74
2019-01-19T09:18:53.615Z,85.48
2019-01-19T09:21:24.941Z,84.84
2019-01-19T09:24:00.612Z,84.32
2019-01-19T09:26:31.851Z,84.89
2019-01-19T09:29:03.206Z,83.59
2019-01-19T09:31:34.564Z,85.31
2019-01-19T09:34:06.231Z,83.60
2019-01-19T09:36:37.494Z,82.79
2019-01-19T09:39:12.483Z,83.13
2019-01-19T09:41:43.756Z,83.37
2019-01-19T09:44:15.064Z,82.51
2019-01-19T09:46:46.624Z,81.84
2019-01-19T09:49:18.059Z,81.72
2019-01-19T09:51:49.360Z,82.72
2019-01-19T09:54:22.296Z,81.83
2019-01-19T09:56:53.560Z,82.12
2019-01-19T09:59:24.909Z,83.64
2019-01-19T10:01:56.298Z,81.99
2019-01-19T10:04:29.242Z,81.11
2019-01-19T10:07:00.504Z,81.43
2019-01-19T10:09:31.811Z,80.54
2019-01-19T10:12:03.258Z,80.49
2019-01-19T10:14:34.613Z,80.28
2019-01-19T10:17:06.062Z,80.25
2019-01-19T10:19:37.403Z,80.14
2019-01-19T10:22:08.708Z,80.16
2019-01-19T10:24:39.974Z,80.31
2019-01-19T10:27:11.289Z,80.63
2019-01-19T10:29:42.696Z,80.96
2019-01-19T10:32:13.955Z,81.04
2019-01-19T10:34:45.235Z,79.94
2019-01-19T10:37:17.498Z,80.20
2019-01-19T10:39:48.794Z,80.61
2019-01-19T10:42:20.298Z,80.68
2019-01-19T10:44:51.692Z,81.13
2019-01-19T10:47:22.932Z,79.42
2019-01-19T10:49:54.262Z,79.43
2019-01-19T10:52:25.685Z,79.40
2019-01-19T10:54:56.959Z,78.33
2019-01-19T10:57:28.352Z,79.10
2019-01-19T10:59:59.658Z,78.24
2019-01-19T11:02:30.917Z,78.07
2019-01-19T11:05:02.452Z,77.53
2019-01-19T11:07:33.876Z,77.39
2019-01-19T11:10:06.417Z,77.71
2019-01-19T11:12:39.586Z,78.32
2019-01-19T11:15:13.871Z,77.71
2019-01-19T11:17:46.650Z,78.04
2019-01-19T11:20:19.990Z,78.36
2019-01-19T11:22:51.452Z,77.42
2019-01-19T11:25:25.630Z,77.34
2019-01-19T11:27:58.394Z,78.04
2019-01-19T11:30:31.633Z,76.91
2019-01-19T11:33:05.809Z,77.80
2019-01-19T11:35:37.519Z,76.66
2019-01-19T11:38:12.008Z,76.75
2019-01-19T11:40:43.479Z,76.46
2019-01-19T11:43:19.180Z,74.92
2019-01-19T11:45:51.567Z,75.43
2019-01-19T11:48:25.478Z,73.75
2019-01-19T11:50:59.365Z,74.34
2019-01-19T11:53:33.506Z,74.84
2019-01-19T11:56:12.174Z,75.81
2019-01-19T11:58:41.502Z,76.06
2019-01-19T12:01:15.553Z,76.75
2019-01-19T12:03:46.806Z,75.55
2019-01-19T12:06:20.411Z,75.77
2019-01-19T12:08:51.674Z,75.60
2019-01-19T12:11:25.892Z,74.64
2019-01-19T12:14:00.532Z,74.08
2019-01-19T12:16:32.827Z,73.67
2019-01-19T12:19:05.654Z,73.11
2019-01-19T12:21:37.816Z,73.33
2019-01-19T12:24:13.334Z,74.16
2019-01-19T12:26:45.815Z,73.19
2019-01-19T12:29:21.422Z,73.29
2019-01-19T12:31:53.719Z,73.79
2019-01-19T12:34:29.388Z,73.52
2019-01-19T12:37:02.281Z,74.33
2019-01-19T12:39:33.984Z,73.89
2019-01-19T12:42:07.727Z,73.90
2019-01-19T12:44:41.809Z,74.16
2019-01-19T12:47:14.728Z,75.53
2019-01-19T12:49:46.946Z,74.79
2019-01-19T12:52:22.487Z,73.85
2019-01-19T12:54:53.880Z,73.38
2019-01-19T12:57:25.521Z,73.45
2019-01-19T12:59:59.288Z,74.93
2019-01-19T13:02:31.760Z,73.31
2019-01-19T13:05:09.360Z,73.56
2019-01-19T13:07:40.971Z,74.40
2019-01-19T13:10:23.077Z,75.03
2019-01-19T13:13:14.057Z,75.26
2019-01-19T13:16:17.152Z,75.44
2019-01-19T13:19:12.497Z,75.26
2019-01-19T13:22:24.780Z,74.74
2019-01-19T13:25:18.696Z,74.77
2019-01-19T13:28:37.813Z,75.00
2019-01-19T13:31:46.731Z,74.51
2019-01-19T13:34:48.549Z,75.52
2019-01-19T13:37:49.390Z,75.19
2019-01-19T13:41:06.969Z,75.52
2019-01-19T13:44:33.260Z,75.74
2019-01-19T13:47:40.339Z,76.84
2019-01-19T13:50:57.409Z,76.45
2019-01-19T13:54:11.321Z,76.80
2019-01-19T13:57:14.504Z,77.27
2019-01-19T14:00:33.491Z,77.27
2019-01-19T14:03:48.343Z,77.25
2019-01-19T14:07:09.791Z,77.66
2019-01-19T14:10:24.841Z,78.98
2019-01-19T14:13:30.694Z,78.96
2019-01-19T14:16:18.748Z,79.12
2019-01-19T14:19:47.470Z,79.31
2019-01-19T14:23:08.112Z,79.91
2019-01-19T14:26:23.813Z,80.32
2019-01-19T14:29:31.105Z,80.75
2019-01-19T14:32:46.591Z,80.59
2019-01-19T14:36:06.276Z,80.67
2019-01-19T14:39:25.802Z,81.49
2019-01-19T14:42:56.959Z,81.49
2019-01-19T14:46:00.964Z,81.20
2019-01-19T14:49:08.639Z,82.20
2019-01-19T14:52:35.999Z,82.52
2019-01-19T14:55:45.137Z,82.11
2019-01-19T14:58:52.544Z,82.19
2019-01-19T15:02:06.899Z,82.94
2019-01-19T15:05:04.158Z,83.37
2019-01-19T15:08:19.913Z,83.53
2019-01-19T15:11:32.640Z,83.54
2019-01-19T15:14:33.873Z,83.68
2019-01-19T15:17:35.836Z,83.86
2019-01-19T15:20:37.605Z,84.61
2019-01-19T15:23:37.874Z,84.34
2019-01-19T15:26:51.717Z,84.61
2019-01-19T15:29:54.664Z,85.00
2019-01-19T15:32:52.123Z,85.21
2019-01-19T15:35:55.820Z,85.40
2019-01-19T15:38:40.945Z,85.30
2019-01-19T15:41:53.341Z,85.58
2019-01-19T15:45:01.967Z,85.91
2019-01-19T15:48:12.833Z,85.98
2019-01-19T15:51:35.791Z,86.51
2019-01-19T15:54:37.779Z,86.67
2019-01-19T15:58:05.264Z,86.50
2019-01-19T16:01:14.348Z,86.67
2019-01-19T16:04:32.557Z,86.25
2019-01-19T16:07:30.137Z,86.83
2019-01-19T16:10:29.271Z,87.46
2019-01-19T16:13:35.839Z,87.34
2019-01-19T16:16:53.489Z,87.70
2019-01-19T16:19:55.390Z,88.22
2019-01-19T16:22:48.506Z,88.13
2019-01-19T16:25:55.161Z,88.24
2019-01-19T16:29:09.952Z,88.15
2019-01-19T16:32:08.085Z,88.26
2019-01-19T16:35:17.053Z,88.41
2019-01-19T16:38:27.407Z,88.08
2019-01-19T16:41:45.867Z,88.23
2019-01-19T16:45:09.922Z,88.51
2019-01-19T16:48:22.051Z,88.60
2019-01-19T16:51:32.705Z,88.56
2019-01-19T16:54:47.796Z,88.53
2019-01-19T16:57:49.618Z,88.63
2019-01-19T17:01:04.426Z,89.09
2019-01-19T17:04:30.232Z,89.08
2019-01-19T17:07:11.066Z,89.36
2019-01-19T17:10:05.116Z,89.29
2019-01-19T17:13:18.281Z,89.42
2019-01-19T17:16:18.664Z,89.41
2019-01-19T17:19:15.196Z,89.55
2019-01-19T17:22:26.522Z,89.58
2019-01-19T17:25:41.365Z,89.34
2019-01-19T17:28:46.674Z,89.60
2019-01-19T17:31:46.295Z,89.86
2019-01-19T17:34:49.491Z,89.96
2019-01-19T17:37:38.356Z,89.58
2019-01-19T17:40:43.477Z,89.85
2019-01-19T17:43:36.886Z,90.04
2019-01-19T17:47:01.976Z,90.15
2019-01-19T17:49:46.965Z,89.82
2019-01-19T17:52:47.573Z,90.18
2019-01-19T17:55:57.345Z,90.14
2019-01-19T17:58:56.038Z,90.32
2019-01-19T18:02:30.009Z,90.22
2019-01-19T18:05:56.889Z,90.80
2019-01-19T18:08:58.346Z,90.42
2019-01-19T18:11:50.194Z,90.56
2019-01-19T18:14:30.630Z,91.15
2019-01-19T18:17:52.914Z,91.37
2019-01-19T18:21:15.192Z,90.97
2019-01-19T18:24:26.714Z,91.40
2019-01-19T18:27:48.081Z,91.31
2019-01-19T18:30:50.061Z,91.80
2019-01-19T18:34:10.731Z,92.16
2019-01-19T18:37:09.906Z,92.27
2019-01-19T18:40:17.331Z,92.54
2019-01-19T18:42:58.801Z,92.87
2019-01-19T18:46:08.125Z,93.01
2019-01-19T18:49:25.735Z,93.12
2019-01-19T18:52:40.596Z,93.42
2019-01-19T18:55:34.783Z,93.46
2019-01-19T18:58:45.671Z,93.82
2019-01-19T19:01:49.925Z,93.56
2019-01-19T19:04:59.704Z,93.72
2019-01-19T19:08:16.990Z,93.58
2019-01-19T19:11:33.241Z,93.80
2019-01-19T19:14:33.115Z,94.30
2019-01-19T19:17:36.336Z,94.44
2019-01-19T19:20:19.638Z,94.62
2019-01-19T19:23:24.292Z,94.65
2019-01-19T19:26:57.978Z,94.72
2019-01-19T19:30:11.535Z,94.79
2019-01-19T19:33:19.449Z,94.94
2019-01-19T19:36:34.889Z,94.99
2019-01-19T19:39:33.729Z,95.03
2019-01-19T19:42:45.526Z,94.97
2019-01-19T19:45:43.395Z,95.10
2019-01-19T19:48:54.931Z,95.26
2019-01-19T19:52:00.375Z,95.28
2019-01-19T19:54:34.945Z,95.42
2019-01-19T19:57:07.069Z,95.38
2019-01-19T19:59:38.834Z,95.18
2019-01-19T20:02:12.921Z,95.23
2019-01-19T20:04:44.300Z,95.33
2019-01-19T20:07:17.793Z,95.30
2019-01-19T20:09:51.890Z,95.42
2019-01-19T20:12:25.895Z,95.47
2019-01-19T20:15:00.246Z,95.54
2019-01-19T20:17:33.876Z,95.61
2019-01-19T20:20:06.690Z,95.76
2019-01-19T20:22:38.687Z,95.93
2019-01-19T20:25:10.946Z,95.89
2019-01-19T20:27:43.816Z,95.99
2019-01-19T20:30:18.260Z,95.99
2019-01-19T20:32:50.720Z,96.08
2019-01-19T20:35:22.794Z,96.27
2019-01-19T20:37:56.155Z,96.31
2019-01-19T20:40:27.513Z,96.39
2019-01-19T20:42:58.788Z,96.47
2019-01-19T20:45:30.139Z,96.59
2019-01-19T20:48:03.830Z,96.65
2019-01-19T20:50:37.082Z,96.68
2019-01-19T20:53:11.104Z,96.61
2019-01-19T20:55:45.381Z,96.72
2019-01-19T20:58:19.011Z,96.85
2019-01-19T21:00:53.237Z,96.78
2019-01-19T21:03:27.054Z,96.72
2019-01-19T21:06:00.155Z,96.68
2019-01-19T21:08:35.795Z,96.42
2019-01-19T21:11:08.659Z,96.51
2019-01-19T21:13:39.934Z,96.55
2019-01-19T21:16:13.963Z,96.45
2019-01-19T21:18:47.038Z,96.39
2019-01-19T21:21:19.125Z,96.51
2019-01-19T21:23:52.094Z,96.72
2019-01-19T21:26:25.999Z,96.87
2019-01-19T21:28:58.162Z,96.79
2019-01-19T21:31:31.155Z,96.79
2019-01-19T21:34:03.278Z,96.87
2019-01-19T21:36:37.849Z,96.86
2019-01-19T21:39:10.257Z,97.05
2019-01-19T21:41:45.885Z,97.11
2019-01-19T21:44:18.114Z,97.14
2019-01-19T21:46:53.757Z,96.99
2019-01-19T21:49:26.148Z,97.02
2019-01-19T21:52:00.123Z,97.12
2019-01-19T21:54:33.173Z,97.23
2019-01-19T21:57:06.291Z,97.32
2019-01-19T21:59:39.140Z,97.30
2019-01-19T22:02:12.302Z,97.35
2019-01-19T22:04:44.153Z,97.46
2019-01-19T22:07:15.412Z,97.47
2019-01-19T22:09:49.219Z,97.38
2019-01-19T22:12:23.344Z,97.41
2019-01-19T22:14:56.313Z,97.33
2019-01-19T22:17:30.210Z,97.32
2019-01-19T22:20:03.315Z,97.35
2019-01-19T22:22:35.304Z,97.34
2019-01-19T22:25:06.946Z,97.32
2019-01-19T22:27:43.246Z,97.40
2019-01-19T22:30:16.697Z,97.51
2019-01-19T22:32:49.451Z,97.52
2019-01-19T22:35:26.109Z,97.60
2019-01-19T22:37:59.645Z,97.48
2019-01-19T22:40:34.360Z,97.46
2019-01-19T22:43:09.115Z,97.58
2019-01-19T22:45:41.456Z,97.59
2019-01-19T22:48:15.483Z,97.82
2019-01-19T22:50:46.834Z,97.93
2019-01-19T22:53:20.444Z,97.97
2019-01-19T22:55:54.345Z,98.15
2019-01-19T22:58:28.505Z,98.17
2019-01-19T23:02:02.526Z,98.18
2019-01-19T23:04:37.980Z,98.30
2019-01-19T23:07:12.578Z,98.37
2019-01-19T23:09:44.509Z,98.36
2019-01-19T23:12:16.583Z,98.61
2019-01-19T23:14:49.948Z,98.45
2019-01-19T23:17:23.567Z,98.53
2019-01-19T23:19:57.578Z,98.59
2019-01-19T23:22:29.005Z,98.61
2019-01-19T23:25:00.869Z,98.72
2019-01-19T23:27:33.585Z,98.86
2019-01-19T23:30:08.029Z,98.97
2019-01-19T23:32:41.649Z,99.04
2019-01-19T23:35:15.540Z,98.99
2019-01-19T23:37:50.505Z,99.04
2019-01-19T23:40:23.718Z,99.00
2019-01-19T23:42:57.657Z,99.11
2019-01-19T23:45:33.177Z,99.27
2019-01-19T23:48:06.588Z,99.38
2019-01-19T23:50:39.502Z,99.38
2019-01-19T23:53:10.759Z,99.40
2019-01-19T23:55:44.764Z,99.37
2019-01-19T23:58:18.862Z,99.25
